sensor_id;sensor_type;location;lat;lon;timestamp;temperature;humidity
45207;DHT22;30950;53.086;21.576;2024-01-16T00:00:52;0.00;99.90
45207;DHT22;30950;53.086;21.576;2024-01-16T00:03:40;-1.00;99.90
45207;DHT22;30950;53.086;21.576;2024-01-16T00:06:08;-1.90;99.90
45207;DHT22;30950;53.086;21.576;2024-01-16T00:08:35;-2.10;99.90
45207;DHT22;30950;53.086;21.576;2024-01-16T00:11:03;-1.90;99.90
45207;DHT22;30950;53.086;21.576;2024-01-16T00:13:32;-1.90;99.90
45207;DHT22;30950;53.086;21.576;2024-01-16T00:16:02;-2.00;99.90
45207;DHT22;30950;53.086;21.576;2024-01-16T00:18:31;-2.00;99.90
45207;DHT22;30950;53.086;21.576;2024-01-16T00:21:01;-2.00;99.90
45207;DHT22;30950;53.086;21.576;2024-01-16T00:23:29;-2.00;99.90
45207;DHT22;30950;53.086;21.576;2024-01-16T00:26:00;-2.00;99.90
45207;DHT22;30950;53.086;21.576;2024-01-16T00:28:27;-2.00;99.90
45207;DHT22;30950;53.086;21.576;2024-01-16T00:30:55;-2.00;99.90
45207;DHT22;30950;53.086;21.576;2024-01-16T00:33:22;-1.30;99.90
45207;DHT22;30950;53.086;21.576;2024-01-16T00:35:50;-2.00;99.90
45207;DHT22;30950;53.086;21.576;2024-01-16T00:38:17;-2.10;99.90
45207;DHT22;30950;53.086;21.576;2024-01-16T00:40:44;-2.10;99.90
45207;DHT22;30950;53.086;21.576;2024-01-16T00:43:13;-0.30;99.90
45207;DHT22;30950;53.086;21.576;2024-01-16T00:45:40;-2.10;99.90
45207;DHT22;30950;53.086;21.576;2024-01-16T00:48:07;-2.10;99.90
45207;DHT22;30950;53.086;21.576;2024-01-16T00:50:38;-0.40;99.90
45207;DHT22;30950;53.086;21.576;2024-01-16T00:53:05;-2.10;99.90
45207;DHT22;30950;53.086;21.576;2024-01-16T00:55:33;-2.10;99.90
45207;DHT22;30950;53.086;21.576;2024-01-16T00:58:00;-2.10;99.90
45207;DHT22;30950;53.086;21.576;2024-01-16T01:00:28;-2.10;99.90
45207;DHT22;30950;53.086;21.576;2024-01-16T01:02:58;-2.10;99.90
45207;DHT22;30950;53.086;21.576;2024-01-16T01:05:28;-2.10;99.90
45207;DHT22;30950;53.086;21.576;2024-01-16T01:07:56;-2.10;99.90
45207;DHT22;30950;53.086;21.576;2024-01-16T01:10:25;-2.10;99.90
45207;DHT22;30950;53.086;21.576;2024-01-16T01:12:52;-2.10;99.90
45207;DHT22;30950;53.086;21.576;2024-01-16T01:15:22;-2.10;99.90
45207;DHT22;30950;53.086;21.576;2024-01-16T01:17:50;-2.10;99.90
45207;DHT22;30950;53.086;21.576;2024-01-16T01:20:19;-2.10;99.90
45207;DHT22;30950;53.086;21.576;2024-01-16T01:22:46;-1.70;99.90
45207;DHT22;30950;53.086;21.576;2024-01-16T01:25:14;-2.20;99.90
45207;DHT22;30950;53.086;21.576;2024-01-16T01:27:41;-2.20;99.90
45207;DHT22;30950;53.086;21.576;2024-01-16T01:30:09;-2.20;99.90
45207;DHT22;30950;53.086;21.576;2024-01-16T01:32:40;-2.20;99.90
45207;DHT22;30950;53.086;21.576;2024-01-16T01:35:08;-2.20;99.90
45207;DHT22;30950;53.086;21.576;2024-01-16T01:37:35;-2.20;99.90
45207;DHT22;30950;53.086;21.576;2024-01-16T01:40:03;-2.30;99.90
45207;DHT22;30950;53.086;21.576;2024-01-16T01:42:30;-2.30;99.90
45207;DHT22;30950;53.086;21.576;2024-01-16T01:44:58;-2.30;99.90
45207;DHT22;30950;53.086;21.576;2024-01-16T01:47:26;-2.30;99.90
45207;DHT22;30950;53.086;21.576;2024-01-16T01:49:53;-2.40;99.90
45207;DHT22;30950;53.086;21.576;2024-01-16T01:52:21;-2.40;99.90
45207;DHT22;30950;53.086;21.576;2024-01-16T01:54:51;-2.40;99.90
45207;DHT22;30950;53.086;21.576;2024-01-16T01:57:18;-2.50;99.90
45207;DHT22;30950;53.086;21.576;2024-01-16T01:59:46;-2.60;99.90
45207;DHT22;30950;53.086;21.576;2024-01-16T02:02:13;-2.60;99.90
45207;DHT22;30950;53.086;21.576;2024-01-16T02:04:43;-2.40;99.90
45207;DHT22;30950;53.086;21.576;2024-01-16T02:07:10;-2.80;99.90
45207;DHT22;30950;53.086;21.576;2024-01-16T02:09:38;-2.80;99.90
45207;DHT22;30950;53.086;21.576;2024-01-16T02:12:06;-2.90;99.90
45207;DHT22;30950;53.086;21.576;2024-01-16T02:14:34;-2.90;99.90
45207;DHT22;30950;53.086;21.576;2024-01-16T02:17:02;-3.00;99.90
45207;DHT22;30950;53.086;21.576;2024-01-16T02:19:29;-3.10;99.90
45207;DHT22;30950;53.086;21.576;2024-01-16T02:21:59;-3.10;99.90
45207;DHT22;30950;53.086;21.576;2024-01-16T02:24:27;-3.20;99.90
45207;DHT22;30950;53.086;21.576;2024-01-16T02:26:54;-3.20;99.90
45207;DHT22;30950;53.086;21.576;2024-01-16T02:29:23;-3.20;99.90
45207;DHT22;30950;53.086;21.576;2024-01-16T02:31:50;-3.30;99.90
45207;DHT22;30950;53.086;21.576;2024-01-16T02:34:18;-3.10;99.90
45207;DHT22;30950;53.086;21.576;2024-01-16T02:36:45;-3.30;99.90
45207;DHT22;30950;53.086;21.576;2024-01-16T02:39:13;-3.30;99.90
45207;DHT22;30950;53.086;21.576;2024-01-16T02:41:40;-3.40;99.90
45207;DHT22;30950;53.086;21.576;2024-01-16T02:44:08;-3.40;99.90
45207;DHT22;30950;53.086;21.576;2024-01-16T02:46:35;-3.40;99.90
45207;DHT22;30950;53.086;21.576;2024-01-16T02:49:03;-3.50;99.90
45207;DHT22;30950;53.086;21.576;2024-01-16T02:51:30;-3.10;99.90
45207;DHT22;30950;53.086;21.576;2024-01-16T02:53:57;-3.60;99.90
45207;DHT22;30950;53.086;21.576;2024-01-16T02:56:25;-3.60;99.90
45207;DHT22;30950;53.086;21.576;2024-01-16T02:58:52;-3.60;99.90
45207;DHT22;30950;53.086;21.576;2024-01-16T03:01:19;-3.70;99.90
45207;DHT22;30950;53.086;21.576;2024-01-16T03:03:47;-3.70;99.90
45207;DHT22;30950;53.086;21.576;2024-01-16T03:06:22;-3.70;99.90
45207;DHT22;30950;53.086;21.576;2024-01-16T03:08:51;-3.70;99.90
45207;DHT22;30950;53.086;21.576;2024-01-16T03:11:18;-3.70;99.90
45207;DHT22;30950;53.086;21.576;2024-01-16T03:13:46;-3.80;99.90
45207;DHT22;30950;53.086;21.576;2024-01-16T03:16:13;-3.80;99.90
45207;DHT22;30950;53.086;21.576;2024-01-16T03:18:41;-3.90;99.90
45207;DHT22;30950;53.086;21.576;2024-01-16T03:21:08;-3.90;99.90
45207;DHT22;30950;53.086;21.576;2024-01-16T03:23:36;-3.90;99.90
45207;DHT22;30950;53.086;21.576;2024-01-16T03:26:03;-3.90;99.90
45207;DHT22;30950;53.086;21.576;2024-01-16T03:28:31;-3.90;99.90
45207;DHT22;30950;53.086;21.576;2024-01-16T03:30:58;-3.90;99.90
45207;DHT22;30950;53.086;21.576;2024-01-16T03:33:26;-3.90;99.90
45207;DHT22;30950;53.086;21.576;2024-01-16T03:35:53;-4.00;99.90
45207;DHT22;30950;53.086;21.576;2024-01-16T03:38:21;-4.00;99.90
45207;DHT22;30950;53.086;21.576;2024-01-16T03:40:48;-4.00;99.90
45207;DHT22;30950;53.086;21.576;2024-01-16T03:43:16;-4.00;99.90
45207;DHT22;30950;53.086;21.576;2024-01-16T03:45:43;-4.00;99.90
45207;DHT22;30950;53.086;21.576;2024-01-16T03:48:11;-4.10;99.90
45207;DHT22;30950;53.086;21.576;2024-01-16T03:50:38;-4.10;99.90
45207;DHT22;30950;53.086;21.576;2024-01-16T03:53:07;-3.50;99.90
45207;DHT22;30950;53.086;21.576;2024-01-16T03:55:34;-4.10;99.90
45207;DHT22;30950;53.086;21.576;2024-01-16T03:58:02;-4.20;99.90
45207;DHT22;30950;53.086;21.576;2024-01-16T04:00:29;-4.20;99.90
45207;DHT22;30950;53.086;21.576;2024-01-16T04:02:57;-4.20;99.90
45207;DHT22;30950;53.086;21.576;2024-01-16T04:05:24;-4.20;99.90
45207;DHT22;30950;53.086;21.576;2024-01-16T04:07:52;-4.30;99.90
45207;DHT22;30950;53.086;21.576;2024-01-16T04:10:19;-4.30;99.90
45207;DHT22;30950;53.086;21.576;2024-01-16T04:12:47;-4.30;99.90
45207;DHT22;30950;53.086;21.576;2024-01-16T04:15:14;-4.30;99.90
45207;DHT22;30950;53.086;21.576;2024-01-16T04:17:41;-3.30;99.90
45207;DHT22;30950;53.086;21.576;2024-01-16T04:20:09;-4.40;99.90
45207;DHT22;30950;53.086;21.576;2024-01-16T04:22:37;-4.40;99.90
45207;DHT22;30950;53.086;21.576;2024-01-16T04:25:05;-4.40;99.90
45207;DHT22;30950;53.086;21.576;2024-01-16T04:27:32;-4.40;99.90
45207;DHT22;30950;53.086;21.576;2024-01-16T04:30:00;-4.50;99.90
45207;DHT22;30950;53.086;21.576;2024-01-16T04:32:28;-4.50;99.90
45207;DHT22;30950;53.086;21.576;2024-01-16T04:34:55;-4.40;99.90
45207;DHT22;30950;53.086;21.576;2024-01-16T04:37:23;-4.50;99.90
45207;DHT22;30950;53.086;21.576;2024-01-16T04:39:51;-4.50;99.90
45207;DHT22;30950;53.086;21.576;2024-01-16T04:42:18;-4.60;99.90
45207;DHT22;30950;53.086;21.576;2024-01-16T04:44:46;-4.60;99.90
45207;DHT22;30950;53.086;21.576;2024-01-16T04:47:15;-4.60;99.90
45207;DHT22;30950;53.086;21.576;2024-01-16T04:49:43;-4.60;99.90
45207;DHT22;30950;53.086;21.576;2024-01-16T04:52:11;-4.60;99.90
45207;DHT22;30950;53.086;21.576;2024-01-16T04:54:38;-4.60;99.90
45207;DHT22;30950;53.086;21.576;2024-01-16T04:57:05;-4.70;99.90
45207;DHT22;30950;53.086;21.576;2024-01-16T04:59:33;-4.70;99.90
45207;DHT22;30950;53.086;21.576;2024-01-16T05:02:00;-4.70;99.90
45207;DHT22;30950;53.086;21.576;2024-01-16T05:04:28;-3.40;99.90
45207;DHT22;30950;53.086;21.576;2024-01-16T05:06:55;-4.70;99.90
45207;DHT22;30950;53.086;21.576;2024-01-16T05:09:22;-3.70;99.90
45207;DHT22;30950;53.086;21.576;2024-01-16T05:11:50;-4.80;99.90
45207;DHT22;30950;53.086;21.576;2024-01-16T05:14:17;-4.80;99.90
45207;DHT22;30950;53.086;21.576;2024-01-16T05:16:45;-4.80;99.90
45207;DHT22;30950;53.086;21.576;2024-01-16T05:19:12;-4.80;99.90
45207;DHT22;30950;53.086;21.576;2024-01-16T05:21:41;-4.80;99.90
45207;DHT22;30950;53.086;21.576;2024-01-16T05:24:08;-4.90;99.90
45207;DHT22;30950;53.086;21.576;2024-01-16T05:26:35;-4.90;99.90
45207;DHT22;30950;53.086;21.576;2024-01-16T05:29:03;-4.90;99.90
45207;DHT22;30950;53.086;21.576;2024-01-16T05:31:30;-4.10;99.90
45207;DHT22;30950;53.086;21.576;2024-01-16T05:33:58;-5.00;99.90
45207;DHT22;30950;53.086;21.576;2024-01-16T05:36:26;-5.00;99.90
45207;DHT22;30950;53.086;21.576;2024-01-16T05:38:54;-5.00;99.90
45207;DHT22;30950;53.086;21.576;2024-01-16T05:41:21;-5.10;99.90
45207;DHT22;30950;53.086;21.576;2024-01-16T05:43:49;-5.10;99.90
45207;DHT22;30950;53.086;21.576;2024-01-16T05:46:16;-5.10;99.90
45207;DHT22;30950;53.086;21.576;2024-01-16T05:48:43;-5.10;99.90
45207;DHT22;30950;53.086;21.576;2024-01-16T05:51:11;-5.20;99.90
45207;DHT22;30950;53.086;21.576;2024-01-16T05:53:38;-4.60;99.90
45207;DHT22;30950;53.086;21.576;2024-01-16T05:56:06;-5.20;99.90
45207;DHT22;30950;53.086;21.576;2024-01-16T05:58:34;-5.20;99.90
45207;DHT22;30950;53.086;21.576;2024-01-16T06:01:06;-5.20;99.90
45207;DHT22;30950;53.086;21.576;2024-01-16T06:03:33;-5.20;99.90
45207;DHT22;30950;53.086;21.576;2024-01-16T06:06:01;-5.20;99.90
45207;DHT22;30950;53.086;21.576;2024-01-16T06:08:28;-5.30;99.90
45207;DHT22;30950;53.086;21.576;2024-01-16T06:10:57;-5.30;99.90
45207;DHT22;30950;53.086;21.576;2024-01-16T06:13:24;-5.30;99.90
45207;DHT22;30950;53.086;21.576;2024-01-16T06:15:52;-5.30;99.90
45207;DHT22;30950;53.086;21.576;2024-01-16T06:18:19;-5.30;99.90
45207;DHT22;30950;53.086;21.576;2024-01-16T06:20:46;-5.30;99.90
45207;DHT22;30950;53.086;21.576;2024-01-16T06:23:14;-5.40;99.90
45207;DHT22;30950;53.086;21.576;2024-01-16T06:25:41;-5.40;99.90
45207;DHT22;30950;53.086;21.576;2024-01-16T06:28:08;-5.40;99.90
45207;DHT22;30950;53.086;21.576;2024-01-16T06:30:36;-5.30;99.90
45207;DHT22;30950;53.086;21.576;2024-01-16T06:33:04;-5.50;99.90
45207;DHT22;30950;53.086;21.576;2024-01-16T06:35:32;-5.50;99.90
45207;DHT22;30950;53.086;21.576;2024-01-16T06:37:59;-5.50;99.90
45207;DHT22;30950;53.086;21.576;2024-01-16T06:40:27;-5.60;99.90
45207;DHT22;30950;53.086;21.576;2024-01-16T06:42:54;-5.60;99.90
45207;DHT22;30950;53.086;21.576;2024-01-16T06:45:21;-5.60;99.90
45207;DHT22;30950;53.086;21.576;2024-01-16T06:47:49;-5.60;99.90
45207;DHT22;30950;53.086;21.576;2024-01-16T06:50:18;-5.70;99.90
45207;DHT22;30950;53.086;21.576;2024-01-16T06:52:46;-5.70;99.90
45207;DHT22;30950;53.086;21.576;2024-01-16T06:55:14;-5.70;99.90
45207;DHT22;30950;53.086;21.576;2024-01-16T06:57:41;-5.70;99.90
45207;DHT22;30950;53.086;21.576;2024-01-16T07:00:09;-5.80;99.90
45207;DHT22;30950;53.086;21.576;2024-01-16T07:02:36;-5.80;99.90
45207;DHT22;30950;53.086;21.576;2024-01-16T07:05:04;-5.80;99.90
45207;DHT22;30950;53.086;21.576;2024-01-16T07:07:32;-5.80;99.90
45207;DHT22;30950;53.086;21.576;2024-01-16T07:09:59;-5.80;99.90
45207;DHT22;30950;53.086;21.576;2024-01-16T07:12:26;-5.80;99.90
45207;DHT22;30950;53.086;21.576;2024-01-16T07:14:54;-5.80;99.90
45207;DHT22;30950;53.086;21.576;2024-01-16T07:17:21;-5.70;99.90
45207;DHT22;30950;53.086;21.576;2024-01-16T07:19:49;-5.70;99.90
45207;DHT22;30950;53.086;21.576;2024-01-16T07:22:16;-4.90;99.90
45207;DHT22;30950;53.086;21.576;2024-01-16T07:24:44;-5.70;99.90
45207;DHT22;30950;53.086;21.576;2024-01-16T07:27:11;-5.70;99.90
45207;DHT22;30950;53.086;21.576;2024-01-16T07:29:39;-5.60;99.90
45207;DHT22;30950;53.086;21.576;2024-01-16T07:32:06;-5.60;99.90
45207;DHT22;30950;53.086;21.576;2024-01-16T07:34:34;-5.60;99.90
45207;DHT22;30950;53.086;21.576;2024-01-16T07:37:01;-5.50;99.90
45207;DHT22;30950;53.086;21.576;2024-01-16T07:39:28;-5.50;99.90
45207;DHT22;30950;53.086;21.576;2024-01-16T07:41:56;-5.50;99.90
45207;DHT22;30950;53.086;21.576;2024-01-16T07:44:24;-5.40;99.90
45207;DHT22;30950;53.086;21.576;2024-01-16T07:46:52;-5.40;99.90
45207;DHT22;30950;53.086;21.576;2024-01-16T07:49:20;-5.40;99.90
45207;DHT22;30950;53.086;21.576;2024-01-16T07:51:47;-5.40;99.90
45207;DHT22;30950;53.086;21.576;2024-01-16T07:54:14;-5.30;99.90
45207;DHT22;30950;53.086;21.576;2024-01-16T07:56:42;-5.30;99.90
45207;DHT22;30950;53.086;21.576;2024-01-16T07:59:10;-5.30;99.90
45207;DHT22;30950;53.086;21.576;2024-01-16T08:01:37;-5.20;99.90
45207;DHT22;30950;53.086;21.576;2024-01-16T08:04:05;-5.20;99.90
45207;DHT22;30950;53.086;21.576;2024-01-16T08:06:32;-5.20;99.90
45207;DHT22;30950;53.086;21.576;2024-01-16T08:09:00;-5.10;99.90
45207;DHT22;30950;53.086;21.576;2024-01-16T08:11:27;-5.10;99.90
45207;DHT22;30950;53.086;21.576;2024-01-16T08:13:55;-5.00;99.90
45207;DHT22;30950;53.086;21.576;2024-01-16T08:16:23;-5.00;99.90
45207;DHT22;30950;53.086;21.576;2024-01-16T08:18:50;-5.00;99.90
45207;DHT22;30950;53.086;21.576;2024-01-16T08:21:18;-5.00;99.90
45207;DHT22;30950;53.086;21.576;2024-01-16T08:23:45;-4.90;99.90
45207;DHT22;30950;53.086;21.576;2024-01-16T08:26:13;-4.80;99.90
45207;DHT22;30950;53.086;21.576;2024-01-16T08:28:40;-4.80;99.90
45207;DHT22;30950;53.086;21.576;2024-01-16T08:31:07;-4.80;99.90
45207;DHT22;30950;53.086;21.576;2024-01-16T08:33:35;-4.50;99.90
45207;DHT22;30950;53.086;21.576;2024-01-16T08:36:12;-4.70;99.90
45207;DHT22;30950;53.086;21.576;2024-01-16T08:38:40;-4.70;99.90
45207;DHT22;30950;53.086;21.576;2024-01-16T08:41:08;-4.70;99.90
45207;DHT22;30950;53.086;21.576;2024-01-16T08:43:36;-4.70;99.90
45207;DHT22;30950;53.086;21.576;2024-01-16T08:46:04;-4.60;99.90
45207;DHT22;30950;53.086;21.576;2024-01-16T08:48:31;-4.50;99.90
45207;DHT22;30950;53.086;21.576;2024-01-16T08:50:59;-4.60;99.90
45207;DHT22;30950;53.086;21.576;2024-01-16T08:53:28;-4.50;99.90
45207;DHT22;30950;53.086;21.576;2024-01-16T08:55:55;-4.50;99.90
45207;DHT22;30950;53.086;21.576;2024-01-16T08:58:23;-4.50;99.90
45207;DHT22;30950;53.086;21.576;2024-01-16T09:00:50;-4.50;99.90
45207;DHT22;30950;53.086;21.576;2024-01-16T09:03:18;-4.50;99.90
45207;DHT22;30950;53.086;21.576;2024-01-16T09:05:45;-4.50;99.90
45207;DHT22;30950;53.086;21.576;2024-01-16T09:08:13;-4.40;99.90
45207;DHT22;30950;53.086;21.576;2024-01-16T09:10:40;-3.40;99.90
45207;DHT22;30950;53.086;21.576;2024-01-16T09:13:08;-4.40;99.90
45207;DHT22;30950;53.086;21.576;2024-01-16T09:15:35;-4.30;99.90
45207;DHT22;30950;53.086;21.576;2024-01-16T09:18:03;-4.30;99.90
45207;DHT22;30950;53.086;21.576;2024-01-16T09:20:31;-4.40;99.90
45207;DHT22;30950;53.086;21.576;2024-01-16T09:22:58;-4.30;99.90
45207;DHT22;30950;53.086;21.576;2024-01-16T09:25:26;-4.30;99.90
45207;DHT22;30950;53.086;21.576;2024-01-16T09:27:55;-4.30;99.90
45207;DHT22;30950;53.086;21.576;2024-01-16T09:30:22;-4.20;99.90
45207;DHT22;30950;53.086;21.576;2024-01-16T09:32:50;-4.20;99.90
45207;DHT22;30950;53.086;21.576;2024-01-16T09:35:17;-4.20;99.90
45207;DHT22;30950;53.086;21.576;2024-01-16T09:37:45;-4.10;99.90
45207;DHT22;30950;53.086;21.576;2024-01-16T09:40:12;-4.10;99.90
45207;DHT22;30950;53.086;21.576;2024-01-16T09:42:41;-4.00;99.90
45207;DHT22;30950;53.086;21.576;2024-01-16T09:45:09;-4.00;99.90
45207;DHT22;30950;53.086;21.576;2024-01-16T09:47:37;-2.70;99.90
45207;DHT22;30950;53.086;21.576;2024-01-16T09:50:05;-3.90;99.90
45207;DHT22;30950;53.086;21.576;2024-01-16T09:52:33;-3.90;99.50
45207;DHT22;30950;53.086;21.576;2024-01-16T09:55:01;-3.90;99.70
45207;DHT22;30950;53.086;21.576;2024-01-16T09:57:29;-3.80;99.60
45207;DHT22;30950;53.086;21.576;2024-01-16T10:00:00;-3.80;98.50
45207;DHT22;30950;53.086;21.576;2024-01-16T10:02:33;-3.00;98.50
45207;DHT22;30950;53.086;21.576;2024-01-16T10:05:00;-2.40;97.40
45207;DHT22;30950;53.086;21.576;2024-01-16T10:07:30;-3.70;98.30
45207;DHT22;30950;53.086;21.576;2024-01-16T10:09:58;-3.70;96.70
45207;DHT22;30950;53.086;21.576;2024-01-16T10:12:26;-3.60;95.80
45207;DHT22;30950;53.086;21.576;2024-01-16T10:14:55;-3.60;95.40
45207;DHT22;30950;53.086;21.576;2024-01-16T10:17:38;-3.30;96.10
45207;DHT22;30950;53.086;21.576;2024-01-16T10:20:10;-3.60;95.50
45207;DHT22;30950;53.086;21.576;2024-01-16T10:22:54;-3.50;96.10
45207;DHT22;30950;53.086;21.576;2024-01-16T10:25:21;-3.50;96.60
45207;DHT22;30950;53.086;21.576;2024-01-16T10:28:02;-3.40;96.70
45207;DHT22;30950;53.086;21.576;2024-01-16T10:30:30;-3.40;95.80
45207;DHT22;30950;53.086;21.576;2024-01-16T10:33:15;-3.20;95.40
45207;DHT22;30950;53.086;21.576;2024-01-16T10:35:44;-3.00;95.60
45207;DHT22;30950;53.086;21.576;2024-01-16T10:38:20;-2.70;95.00
45207;DHT22;30950;53.086;21.576;2024-01-16T10:40:48;-2.50;94.60
45207;DHT22;30950;53.086;21.576;2024-01-16T10:43:31;-2.20;93.00
45207;DHT22;30950;53.086;21.576;2024-01-16T10:46:17;-0.90;94.60
45207;DHT22;30950;53.086;21.576;2024-01-16T10:49:02;-1.60;91.00
45207;DHT22;30950;53.086;21.576;2024-01-16T10:51:32;-1.30;88.60
45207;DHT22;30950;53.086;21.576;2024-01-16T10:54:04;-1.00;92.10
45207;DHT22;30950;53.086;21.576;2024-01-16T10:56:35;-0.80;83.90
45207;DHT22;30950;53.086;21.576;2024-01-16T10:59:18;-0.60;82.00
45207;DHT22;30950;53.086;21.576;2024-01-16T11:01:50;-0.80;79.30
45207;DHT22;30950;53.086;21.576;2024-01-16T11:04:20;-1.20;78.70
45207;DHT22;30950;53.086;21.576;2024-01-16T11:06:50;-1.50;80.40
45207;DHT22;30950;53.086;21.576;2024-01-16T11:09:18;-1.80;81.20
45207;DHT22;30950;53.086;21.576;2024-01-16T11:11:47;-2.10;81.60
45207;DHT22;30950;53.086;21.576;2024-01-16T11:14:17;-2.20;83.50
45207;DHT22;30950;53.086;21.576;2024-01-16T11:16:46;-2.30;83.40
45207;DHT22;30950;53.086;21.576;2024-01-16T11:19:16;-2.50;82.00
45207;DHT22;30950;53.086;21.576;2024-01-16T11:22:03;-2.60;82.90
45207;DHT22;30950;53.086;21.576;2024-01-16T11:24:32;-2.70;82.70
45207;DHT22;30950;53.086;21.576;2024-01-16T11:26:59;-2.70;83.80
45207;DHT22;30950;53.086;21.576;2024-01-16T11:31:56;-2.60;85.50
45207;DHT22;30950;53.086;21.576;2024-01-16T11:37:14;-2.60;86.50
45207;DHT22;30950;53.086;21.576;2024-01-16T11:39:42;-2.60;83.80
45207;DHT22;30950;53.086;21.576;2024-01-16T11:42:09;-2.10;83.90
45207;DHT22;30950;53.086;21.576;2024-01-16T11:44:46;-2.60;85.40
45207;DHT22;30950;53.086;21.576;2024-01-16T11:47:23;-2.40;88.00
45207;DHT22;30950;53.086;21.576;2024-01-16T11:50:11;-2.10;85.70
45207;DHT22;30950;53.086;21.576;2024-01-16T11:52:45;-2.00;85.20
45207;DHT22;30950;53.086;21.576;2024-01-16T12:01:08;-1.50;81.30
45207;DHT22;30950;53.086;21.576;2024-01-16T12:03:39;-1.30;81.10
45207;DHT22;30950;53.086;21.576;2024-01-16T12:06:06;-0.80;81.10
45207;DHT22;30950;53.086;21.576;2024-01-16T12:08:36;-1.30;79.10
45207;DHT22;30950;53.086;21.576;2024-01-16T12:11:04;-0.50;80.10
45207;DHT22;30950;53.086;21.576;2024-01-16T12:13:32;-1.40;77.90
45207;DHT22;30950;53.086;21.576;2024-01-16T12:16:04;-1.50;78.40
45207;DHT22;30950;53.086;21.576;2024-01-16T12:18:32;-1.60;80.20
45207;DHT22;30950;53.086;21.576;2024-01-16T12:21:11;-1.70;79.10
45207;DHT22;30950;53.086;21.576;2024-01-16T12:23:39;-1.70;79.60
45207;DHT22;30950;53.086;21.576;2024-01-16T12:26:25;-1.70;77.90
45207;DHT22;30950;53.086;21.576;2024-01-16T12:28:53;-1.60;78.80
45207;DHT22;30950;53.086;21.576;2024-01-16T12:31:27;-1.70;79.00
45207;DHT22;30950;53.086;21.576;2024-01-16T12:34:10;-1.70;77.70
45207;DHT22;30950;53.086;21.576;2024-01-16T12:36:38;-1.60;78.50
45207;DHT22;30950;53.086;21.576;2024-01-16T12:39:05;-1.70;78.80
45207;DHT22;30950;53.086;21.576;2024-01-16T12:41:41;-1.60;79.60
45207;DHT22;30950;53.086;21.576;2024-01-16T12:44:10;-1.60;79.70
45207;DHT22;30950;53.086;21.576;2024-01-16T12:46:54;-0.70;78.60
45207;DHT22;30950;53.086;21.576;2024-01-16T12:49:22;-1.80;78.50
45207;DHT22;30950;53.086;21.576;2024-01-16T12:51:50;-1.80;78.70
45207;DHT22;30950;53.086;21.576;2024-01-16T12:54:19;-1.80;78.80
45207;DHT22;30950;53.086;21.576;2024-01-16T12:56:58;-1.90;78.60
45207;DHT22;30950;53.086;21.576;2024-01-16T12:59:27;-1.90;79.70
45207;DHT22;30950;53.086;21.576;2024-01-16T13:01:58;-0.90;79.80
45207;DHT22;30950;53.086;21.576;2024-01-16T13:04:25;-2.00;79.70
45207;DHT22;30950;53.086;21.576;2024-01-16T13:07:02;-2.00;80.70
45207;DHT22;30950;53.086;21.576;2024-01-16T13:09:30;-2.10;80.20
45207;DHT22;30950;53.086;21.576;2024-01-16T13:11:59;-1.40;80.70
45207;DHT22;30950;53.086;21.576;2024-01-16T13:14:28;-2.30;79.90
45207;DHT22;30950;53.086;21.576;2024-01-16T13:16:55;-2.40;80.40
45207;DHT22;30950;53.086;21.576;2024-01-16T13:19:23;-2.40;81.00
45207;DHT22;30950;53.086;21.576;2024-01-16T13:21:52;-2.40;80.50
45207;DHT22;30950;53.086;21.576;2024-01-16T13:24:21;-2.40;81.00
45207;DHT22;30950;53.086;21.576;2024-01-16T13:26:51;-2.40;81.40
45207;DHT22;30950;53.086;21.576;2024-01-16T13:29:19;-2.50;80.00
45207;DHT22;30950;53.086;21.576;2024-01-16T13:31:47;-2.40;81.30
45207;DHT22;30950;53.086;21.576;2024-01-16T13:34:15;-1.30;82.90
45207;DHT22;30950;53.086;21.576;2024-01-16T13:36:46;-2.50;81.40
45207;DHT22;30950;53.086;21.576;2024-01-16T13:39:35;-2.50;82.40
45207;DHT22;30950;53.086;21.576;2024-01-16T13:42:06;-2.50;82.60
45207;DHT22;30950;53.086;21.576;2024-01-16T13:44:34;-2.50;81.40
45207;DHT22;30950;53.086;21.576;2024-01-16T13:47:02;-2.40;83.00
45207;DHT22;30950;53.086;21.576;2024-01-16T13:49:37;-2.40;81.90
45207;DHT22;30950;53.086;21.576;2024-01-16T13:52:05;-2.40;81.00
45207;DHT22;30950;53.086;21.576;2024-01-16T13:54:36;-2.40;81.30
45207;DHT22;30950;53.086;21.576;2024-01-16T13:57:04;-2.40;82.00
45207;DHT22;30950;53.086;21.576;2024-01-16T13:59:35;-2.50;81.50
45207;DHT22;30950;53.086;21.576;2024-01-16T14:02:03;-2.60;81.90
45207;DHT22;30950;53.086;21.576;2024-01-16T14:04:35;-2.60;82.00
45207;DHT22;30950;53.086;21.576;2024-01-16T14:07:03;-2.70;82.30
45207;DHT22;30950;53.086;21.576;2024-01-16T14:09:40;-2.80;81.90
45207;DHT22;30950;53.086;21.576;2024-01-16T14:12:10;-2.90;82.10
45207;DHT22;30950;53.086;21.576;2024-01-16T14:14:40;-2.90;83.10
45207;DHT22;30950;53.086;21.576;2024-01-16T14:17:09;-3.10;83.10
45207;DHT22;30950;53.086;21.576;2024-01-16T14:19:37;-2.80;83.90
45207;DHT22;30950;53.086;21.576;2024-01-16T14:22:06;-3.30;83.10
45207;DHT22;30950;53.086;21.576;2024-01-16T14:24:33;-3.30;83.80
45207;DHT22;30950;53.086;21.576;2024-01-16T14:27:01;-3.30;84.20
45207;DHT22;30950;53.086;21.576;2024-01-16T14:29:29;-3.40;84.70
45207;DHT22;30950;53.086;21.576;2024-01-16T14:31:56;-3.50;84.70
45207;DHT22;30950;53.086;21.576;2024-01-16T14:34:25;-3.50;84.60
45207;DHT22;30950;53.086;21.576;2024-01-16T14:36:54;-3.50;85.30
45207;DHT22;30950;53.086;21.576;2024-01-16T14:39:21;-3.60;86.10
45207;DHT22;30950;53.086;21.576;2024-01-16T14:41:53;-3.70;86.10
45207;DHT22;30950;53.086;21.576;2024-01-16T14:44:22;-3.60;86.80
45207;DHT22;30950;53.086;21.576;2024-01-16T14:46:49;-3.80;86.90
45207;DHT22;30950;53.086;21.576;2024-01-16T14:49:20;-3.80;87.10
45207;DHT22;30950;53.086;21.576;2024-01-16T14:51:49;-3.90;87.60
45207;DHT22;30950;53.086;21.576;2024-01-16T14:54:18;-3.90;88.20
45207;DHT22;30950;53.086;21.576;2024-01-16T14:56:45;-3.90;88.20
45207;DHT22;30950;53.086;21.576;2024-01-16T14:59:13;-4.00;88.50
45207;DHT22;30950;53.086;21.576;2024-01-16T15:01:43;-4.00;89.00
45207;DHT22;30950;53.086;21.576;2024-01-16T15:04:11;-3.30;89.70
45207;DHT22;30950;53.086;21.576;2024-01-16T15:06:40;-3.00;90.20
45207;DHT22;30950;53.086;21.576;2024-01-16T15:09:08;-3.50;90.10
45207;DHT22;30950;53.086;21.576;2024-01-16T15:11:42;-4.20;90.20
45207;DHT22;30950;53.086;21.576;2024-01-16T15:14:13;-4.30;90.40
45207;DHT22;30950;53.086;21.576;2024-01-16T15:16:41;-4.20;90.80
45207;DHT22;30950;53.086;21.576;2024-01-16T15:19:10;-4.30;91.10
45207;DHT22;30950;53.086;21.576;2024-01-16T15:21:38;-4.40;91.20
45207;DHT22;30950;53.086;21.576;2024-01-16T15:24:06;-4.40;91.40
45207;DHT22;30950;53.086;21.576;2024-01-16T15:26:34;-4.40;91.70
45207;DHT22;30950;53.086;21.576;2024-01-16T15:29:02;-4.40;91.80
45207;DHT22;30950;53.086;21.576;2024-01-16T15:31:29;-4.50;92.00
45207;DHT22;30950;53.086;21.576;2024-01-16T15:33:57;-4.40;92.30
45207;DHT22;30950;53.086;21.576;2024-01-16T15:36:24;-4.60;92.40